Time;durP1;ratioP1;P1;durP2;ratioP2;P2;SDS_P1;SDS_P2;PMS_P1;PMS_P2;Temp;Humidity;BMP_temperature;BMP_pressure;BME280_temperature;BME280_humidity;BME280_pressure;Samples;Min_cycle;Max_cycle;Signal;HPM_P1;HPM_P2
2023/04/08 00:00:08;;;;;;;38.35;21.33;;;12.30;99.90;;;12.32;90.27;102159.47;4995611;28;20503;-82
2023/04/08 00:02:41;;;;;;;32.38;21.05;;;12.20;99.90;;;12.54;89.78;102174.69;4995928;28;20042;-82
2023/04/08 00:05:12;;;;;;;42.80;21.67;;;12.20;99.90;;;12.35;90.02;102175.41;4995612;28;20070;-82
2023/04/08 00:07:40;;;;;;;37.87;21.20;;;12.10;99.90;;;12.14;91.18;102147.75;4994584;28;20053;-83
2023/04/08 00:10:10;;;;;;;36.42;21.92;;;12.00;99.90;;;12.38;91.04;102174.53;4996032;28;20317;-83
2023/04/08 00:12:38;;;;;;;33.90;22.05;;;12.00;99.90;;;12.40;90.68;102173.69;4995791;28;20066;-83
2023/04/08 00:15:07;;;;;;;42.88;23.10;;;12.10;99.90;;;12.25;91.19;102177.97;4995982;28;20066;-83
2023/04/08 00:17:36;;;;;;;41.95;23.30;;;11.90;99.90;;;11.78;91.55;102096.16;4995595;28;20042;-82
2023/04/08 00:20:05;;;;;;;43.72;23.80;;;11.90;99.90;;;12.25;91.56;102176.19;4995562;28;20038;-82
2023/04/08 00:22:36;;;;;;;39.95;23.92;;;11.90;99.90;;;12.17;91.73;102169.03;4995476;28;20459;-83
2023/04/08 00:25:08;;;;;;;36.50;23.25;;;11.80;99.90;;;12.20;91.84;102169.94;4995556;28;20436;-83
2023/04/08 00:27:36;;;;;;;37.55;23.75;;;11.90;99.90;;;12.18;91.82;102168.16;4995828;28;20462;-82
2023/04/08 00:30:06;;;;;;;39.90;23.60;;;11.80;99.90;;;12.24;92.19;102171.75;4994093;28;20097;-83
2023/04/08 00:32:35;;;;;;;38.97;24.23;;;11.90;99.90;;;12.19;91.94;102172.59;4995451;28;20053;-83
2023/04/08 00:35:04;;;;;;;39.25;23.95;;;11.80;99.90;;;12.23;92.05;102175.28;4994947;28;20117;-83
2023/04/08 00:37:33;;;;;;;38.42;25.23;;;11.90;99.90;;;12.30;92.01;102176.22;4993960;28;20050;-83
2023/04/08 00:40:03;;;;;;;43.00;24.88;;;11.90;99.90;;;12.29;91.61;102177.97;4994995;28;20046;-82
2023/04/08 00:42:31;;;;;;;39.67;25.88;;;12.00;99.90;;;12.26;91.58;102180.63;4995596;28;20050;-83
2023/04/08 00:44:59;;;;;;;38.00;25.27;;;11.90;99.90;;;12.26;91.67;102177.06;4993863;28;20049;-83
2023/04/08 00:47:28;;;;;;;40.05;25.58;;;11.90;99.90;;;12.04;91.67;102146.78;4995139;28;20078;-83
2023/04/08 00:49:56;;;;;;;40.45;26.23;;;11.80;99.90;;;12.12;92.28;102178.69;4993397;28;20049;-83
2023/04/08 00:52:25;;;;;;;46.47;27.75;;;11.80;99.90;;;12.13;92.63;102173.44;4994667;28;20089;-83
2023/04/08 00:54:53;;;;;;;43.92;26.75;;;11.80;99.90;;;12.23;92.60;102177.91;4994898;28;20504;-82
2023/04/08 00:57:23;;;;;;;43.25;27.58;;;11.80;99.90;;;12.32;92.00;102180.69;4993741;28;20089;-84
2023/04/08 00:59:51;;;;;;;41.05;27.83;;;11.90;99.90;;;12.41;91.84;102180.75;4994868;28;20133;-84
2023/04/08 01:02:31;;;;;;;41.75;28.60;;;12.00;99.90;;;12.41;91.99;102185.16;4994428;28;20472;-82
2023/04/08 01:05:05;;;;;;;41.53;27.17;;;12.00;99.90;;;12.52;91.21;102183.53;4993718;28;20052;-83
2023/04/08 01:07:37;;;;;;;38.80;26.85;;;12.20;99.90;;;12.49;91.11;102189.69;4993302;28;20050;-82
2023/04/08 01:10:15;;;;;;;37.85;27.05;;;12.20;99.90;;;12.62;90.72;102182.69;4993478;28;20133;-83
2023/04/08 01:12:58;;;;;;;39.03;27.13;;;12.30;99.90;;;12.47;90.49;102185.22;4994353;28;20488;-83
2023/04/08 01:15:29;;;;;;;42.00;27.15;;;12.20;99.90;;;12.51;90.71;102185.28;4993254;28;20124;-83
2023/04/08 01:18:00;;;;;;;41.00;27.40;;;12.10;99.90;;;12.50;90.64;102190.59;4993337;28;20046;-83
2023/04/08 01:20:30;;;;;;;42.08;28.55;;;12.20;99.90;;;12.52;90.57;102187.03;4994224;28;20069;-83
2023/04/08 01:23:11;;;;;;;37.63;26.37;;;12.20;99.90;;;12.13;90.61;102109.78;4994408;28;20042;-83
2023/04/08 01:25:40;;;;;;;40.85;28.02;;;12.20;99.90;;;12.57;90.49;102187.09;4994752;28;20297;-83
2023/04/08 01:28:15;;;;;;;39.67;27.67;;;12.30;99.90;;;12.64;90.24;102188.91;4994063;28;20121;-83
2023/04/08 01:30:45;;;;;;;37.92;26.75;;;12.30;99.90;;;12.63;90.13;102189.81;4993018;28;20101;-82
2023/04/08 01:33:17;;;;;;;39.17;27.58;;;12.30;99.90;;;12.55;89.73;102180.88;4993196;28;20142;-82
2023/04/08 01:35:46;;;;;;;39.47;28.05;;;12.30;99.90;;;12.60;89.71;102189.78;4994288;28;20132;-83
2023/04/08 01:38:18;;;;;;;39.45;27.48;;;12.30;99.90;;;12.61;89.75;102192.47;4993580;28;20050;-83
2023/04/08 01:40:49;;;;;;;41.53;27.92;;;12.30;99.90;;;12.64;89.81;102199.53;4994144;28;20077;-82
2023/04/08 01:43:20;;;;;;;44.00;29.08;;;12.30;99.90;;;12.63;89.67;102192.47;4992683;28;20112;-82
2023/04/08 01:45:53;;;;;;;39.83;28.40;;;12.30;99.90;;;12.62;89.78;102201.28;4992678;28;20483;-82
2023/04/08 01:48:22;;;;;;;42.58;28.75;;;12.30;99.90;;;11.96;89.77;102078.66;4992778;28;20046;-74
2023/04/08 01:50:53;;;;;;;43.60;29.50;;;12.30;99.90;;;12.63;89.72;102200.41;4994568;28;20494;-83
2023/04/08 01:53:22;;;;;;;42.63;30.08;;;12.30;99.90;;;12.65;89.84;102196.00;4992674;28;20065;-83
2023/04/08 01:55:57;;;;;;;41.85;29.75;;;12.30;99.90;;;12.67;89.61;102199.56;4993874;28;20034;-82
2023/04/08 01:58:33;;;;;;;42.40;27.77;;;12.30;99.90;;;12.64;89.17;102175.63;4992589;28;20050;-83
2023/04/08 02:01:02;;;;;;;38.33;26.58;;;12.40;99.90;;;12.70;89.27;102188.97;4993799;28;20042;-82
2023/04/08 02:03:31;;;;;;;41.38;28.38;;;12.40;99.90;;;12.49;89.19;102192.34;4993979;28;20049;-82
2023/04/08 02:06:00;;;;;;;43.13;29.60;;;12.20;99.90;;;12.60;89.39;102189.78;4993747;28;20054;-82
2023/04/08 02:08:28;;;;;;;46.80;30.88;;;12.30;99.90;;;12.62;89.33;102194.22;4993695;28;20050;-83
2023/04/08 02:10:56;;;;;;;46.75;30.92;;;12.30;99.90;;;12.57;89.35;102187.09;4993963;28;20134;-83
2023/04/08 02:13:26;;;;;;;46.63;31.67;;;12.30;99.90;;;12.59;89.52;102188.91;4992295;28;20050;-82
2023/04/08 02:16:04;;;;;;;45.83;32.08;;;12.30;99.90;;;12.59;89.53;102199.50;4993702;28;20042;-82
2023/04/08 02:18:37;;;;;;;48.03;31.58;;;12.20;99.90;;;12.70;89.42;102191.63;4993602;28;20050;-83
2023/04/08 02:21:11;;;;;;;51.80;33.22;;;12.30;99.90;;;12.66;89.21;102190.72;4993610;28;20547;-82
2023/04/08 02:23:41;;;;;;;49.45;32.42;;;12.40;99.90;;;12.67;89.20;102189.84;4993202;28;20395;-82
2023/04/08 02:26:14;;;;;;;49.27;33.17;;;12.40;99.90;;;12.62;89.29;102190.66;4993847;28;20061;-83
2023/04/08 02:28:45;;;;;;;48.22;32.72;;;12.30;99.90;;;12.61;89.33;102188.91;4993570;28;20050;-83
2023/04/08 02:31:14;;;;;;;47.92;33.03;;;12.30;99.90;;;12.63;89.41;102195.13;4992279;28;20042;-83
2023/04/08 02:33:46;;;;;;;45.78;32.35;;;12.30;99.90;;;12.62;89.38;102193.31;4993805;28;20097;-83
2023/04/08 02:36:15;;;;;;;52.30;34.05;;;12.30;99.90;;;12.61;89.60;102197.75;4993411;28;20088;-83
2023/04/08 02:38:48;;;;;;;51.70;33.83;;;12.30;99.90;;;12.55;89.61;102189.75;4993646;28;20393;-83
2023/04/08 02:41:17;;;;;;;52.15;34.80;;;12.30;99.90;;;12.49;89.68;102191.44;4992360;28;20058;-82
2023/04/08 02:43:47;;;;;;;49.65;33.15;;;12.20;99.90;;;12.49;89.83;102188.78;4991972;28;20145;-83
2023/04/08 02:46:15;;;;;;;51.25;33.85;;;12.20;99.90;;;12.49;89.89;102204.72;4993251;28;20043;-82
2023/04/08 02:48:44;;;;;;;49.75;33.88;;;12.10;99.90;;;12.49;90.12;102204.72;4993354;28;20046;-82
2023/04/08 02:51:12;;;;;;;50.83;33.63;;;12.10;99.90;;;12.50;89.69;102202.06;4994959;28;20046;-83
2023/04/08 02:53:41;;;;;;;49.20;32.80;;;12.20;99.90;;;12.48;89.53;102208.25;4997108;28;20046;-82
2023/04/08 02:56:11;;;;;;;52.05;34.45;;;12.10;99.90;;;12.42;89.41;102202.88;4995841;28;20047;-83
2023/04/08 02:58:39;;;;;;;50.13;34.05;;;12.10;99.90;;;12.42;89.55;102201.13;4996853;28;20042;-83
2023/04/08 03:01:09;;;;;;;50.75;34.05;;;12.10;99.90;;;12.43;89.41;102210.84;4996730;28;20038;-83
2023/04/08 03:03:38;;;;;;;51.13;34.35;;;12.10;99.90;;;12.29;89.82;102190.38;4996769;28;20043;-83
2023/04/08 03:06:06;;;;;;;49.83;33.70;;;12.00;99.90;;;12.34;89.55;102205.47;4996701;28;20069;-83
2023/04/08 03:08:35;;;;;;;52.10;34.15;;;12.00;99.90;;;12.37;89.56;102194.88;4996837;28;20411;-82
2023/04/08 03:11:03;;;;;;;50.05;32.85;;;12.00;99.90;;;12.35;89.41;102207.22;4996633;28;20046;-83
2023/04/08 03:13:31;;;;;;;49.58;34.00;;;12.00;99.90;;;12.34;89.71;102225.81;4997110;28;20453;-83
2023/04/08 03:16:00;;;;;;;49.78;33.78;;;12.00;99.90;;;12.33;89.43;102224.03;4996487;28;20551;-83
2023/04/08 03:18:30;;;;;;;56.55;35.55;;;12.00;99.90;;;12.33;89.39;102214.28;4996495;28;20051;-83
2023/04/08 03:20:58;;;;;;;49.75;34.50;;;12.00;99.90;;;12.29;89.41;102214.25;4996678;28;20546;-83
2023/04/08 03:23:26;;;;;;;48.03;30.92;;;12.00;99.90;;;12.18;89.40;102222.09;4996504;28;20050;-82
2023/04/08 03:25:55;;;;;;;50.30;33.30;;;11.90;99.90;;;11.68;89.80;102138.44;4996786;28;20142;-81
2023/04/08 03:28:23;;;;;;;39.70;26.77;;;11.80;99.90;;;12.08;90.04;102222.88;4996326;28;20046;-83
2023/04/08 03:30:51;;;;;;;44.15;29.73;;;11.70;99.90;;;12.07;90.17;102221.09;4996209;28;20046;-82
2023/04/08 03:33:20;;;;;;;46.85;31.50;;;11.70;99.90;;;12.04;90.54;102230.78;4996745;28;20042;-83
2023/04/08 03:35:49;;;;;;;41.13;28.17;;;11.70;99.90;;;12.03;90.66;102223.69;4996402;28;20377;-83
2023/04/08 03:38:18;;;;;;;46.70;31.37;;;11.70;99.90;;;12.07;90.86;102229.06;4996635;28;20046;-83
2023/04/08 03:40:46;;;;;;;48.53;32.15;;;11.70;99.90;;;12.08;90.62;102232.59;4996014;28;20046;-79
2023/04/08 03:43:15;;;;;;;51.97;34.15;;;11.70;99.90;;;12.09;90.63;102232.63;4994953;28;20050;-83
2023/04/08 03:45:43;;;;;;;52.58;33.78;;;11.80;99.90;;;12.12;90.75;102240.59;4996145;28;20046;-82
2023/04/08 03:48:11;;;;;;;47.60;30.73;;;11.70;99.90;;;12.08;90.70;102237.91;4994982;28;20050;-81
2023/04/08 03:50:40;;;;;;;49.25;31.23;;;11.70;99.90;;;12.08;90.83;102244.09;4995972;28;20069;-83
2023/04/08 03:53:11;;;;;;;43.25;30.33;;;11.70;99.90;;;12.08;91.01;102246.72;4995841;28;20041;-83
2023/04/08 03:55:40;;;;;;;44.38;29.05;;;11.70;99.90;;;11.94;91.04;102221.84;4995860;28;20082;-83
2023/04/08 03:58:08;;;;;;;50.50;34.08;;;11.70;99.90;;;12.10;90.98;102242.34;4995763;28;20046;-83
2023/04/08 04:00:37;;;;;;;45.30;30.25;;;11.80;99.90;;;12.07;90.98;102244.97;4994267;28;20380;-83
2023/04/08 04:03:05;;;;;;;49.38;31.52;;;11.70;99.90;;;12.06;90.89;102243.19;4995621;28;20080;-83
2023/04/08 04:05:34;;;;;;;44.63;30.23;;;11.70;99.90;;;12.07;91.28;102252.03;4994456;28;20050;-83
2023/04/08 04:08:02;;;;;;;43.38;30.27;;;11.70;99.90;;;12.06;91.60;102248.47;4996099;28;20043;-83
2023/04/08 04:10:32;;;;;;;37.70;26.45;;;11.70;99.90;;;12.03;91.54;102267.03;4994585;28;20451;-83
2023/04/08 04:13:01;;;;;;;29.55;21.75;;;11.70;99.90;;;11.29;91.20;102133.53;4995793;28;20043;-83
2023/04/08 04:15:29;;;;;;;35.00;24.38;;;11.70;99.90;;;11.97;91.34;102251.03;4994579;28;20062;-83
2023/04/08 04:17:57;;;;;;;46.85;32.50;;;11.70;99.90;;;11.97;91.41;102250.13;4995650;28;20046;-84
2023/04/08 04:20:28;;;;;;;53.97;33.88;;;11.70;99.90;;;12.12;91.34;102255.63;4995401;28;20101;-83
2023/04/08 04:22:56;;;;;;;49.28;32.05;;;11.70;99.90;;;12.12;91.16;102256.50;4995872;28;20087;-83
2023/04/08 04:25:25;;;;;;;49.35;32.95;;;11.80;99.90;;;12.16;91.29;102257.44;4995699;28;20089;-81
2023/04/08 04:27:54;;;;;;;47.50;32.00;;;11.80;99.90;;;12.09;91.28;102260.91;4995484;28;20473;-83
2023/04/08 04:30:23;;;;;;;50.10;32.13;;;11.70;99.90;;;12.07;91.37;102262.63;4995120;28;20043;-83
2023/04/08 04:32:51;;;;;;;51.42;34.45;;;11.70;99.90;;;12.02;91.48;102261.72;4995097;28;20130;-83
2023/04/08 04:35:20;;;;;;;51.65;33.75;;;11.60;99.90;;;11.95;91.97;102259.81;4995081;28;20050;-84
2023/04/08 04:37:50;;;;;;;52.00;32.60;;;11.60;99.90;;;11.93;92.43;102262.47;4994985;28;20499;-83
2023/04/08 04:40:19;;;;;;;52.13;33.95;;;11.50;99.90;;;11.93;92.18;102266.88;4994993;28;20400;-83
2023/04/08 04:42:47;;;;;;;50.13;32.72;;;11.60;99.90;;;11.98;92.10;102274.00;4995412;28;20047;-83
2023/04/08 04:45:17;;;;;;;51.75;34.08;;;11.60;99.90;;;12.01;91.84;102276.72;4994789;28;20116;-83
2023/04/08 04:47:45;;;;;;;52.17;33.80;;;11.60;99.90;;;12.01;91.61;102270.50;4995061;28;20461;-84
2023/04/08 04:50:14;;;;;;;54.53;34.72;;;11.70;99.90;;;11.98;91.57;102276.66;4995301;28;20415;-83
2023/04/08 04:52:42;;;;;;;57.00;34.05;;;11.60;99.90;;;11.98;91.81;102275.78;4993395;28;20050;-83
2023/04/08 04:55:10;;;;;;;52.50;33.63;;;11.60;99.90;;;11.93;91.88;102281.03;4994698;28;20043;-83
2023/04/08 04:57:39;;;;;;;50.55;32.75;;;11.60;99.90;;;11.79;91.83;102267.59;4994684;28;20062;-83
2023/04/08 05:00:10;;;;;;;45.63;31.27;;;11.60;99.90;;;11.74;92.13;102261.34;4994566;28;20042;-82
2023/04/08 05:02:40;;;;;;;39.33;25.45;;;11.50;99.90;;;11.85;92.10;102284.44;4994573;28;20042;-82
2023/04/08 05:05:09;;;;;;;42.92;28.92;;;11.50;99.90;;;11.85;92.13;102281.78;4994811;28;20052;-83
2023/04/08 05:07:38;;;;;;;48.97;31.38;;;11.50;99.90;;;11.93;92.04;102286.34;4994999;28;20086;-83
2023/04/08 05:10:08;;;;;;;53.08;33.47;;;11.50;99.90;;;11.98;91.94;102286.41;4994939;28;20057;-83
2023/04/08 05:12:37;;;;;;;51.25;32.47;;;11.60;99.90;;;11.98;92.10;102291.72;4993408;28;20057;-83
2023/04/08 05:15:07;;;;;;;55.70;35.23;;;11.60;99.90;;;12.05;91.85;102291.81;4994534;28;20043;-83
2023/04/08 05:17:35;;;;;;;58.22;36.40;;;11.70;99.90;;;12.10;91.96;102300.69;4994495;28;20046;-83
2023/04/08 05:20:07;;;;;;;61.88;37.92;;;11.80;99.90;;;12.03;91.73;102301.50;4994195;28;20451;-82
2023/04/08 05:22:35;;;;;;;59.67;37.95;;;11.80;99.90;;;12.19;91.56;102294.63;4994411;28;20105;-83
2023/04/08 05:25:05;;;;;;;56.70;36.38;;;11.80;99.90;;;12.20;91.22;102301.69;4994314;28;20055;-83
2023/04/08 05:27:33;;;;;;;59.97;38.10;;;11.90;99.90;;;12.01;91.15;102266.13;4994299;28;20057;-83
2023/04/08 05:30:02;;;;;;;52.75;36.67;;;11.90;99.90;;;12.23;91.12;102301.75;4994359;28;20038;-84
2023/04/08 05:32:30;;;;;;;58.67;37.15;;;11.90;99.90;;;12.17;90.85;102286.66;4994061;28;20459;-83
2023/04/08 05:34:58;;;;;;;57.58;36.33;;;11.90;99.90;;;12.18;91.09;102303.44;4993978;28;20471;-84
2023/04/08 05:37:28;;;;;;;56.75;36.13;;;11.90;99.90;;;12.18;91.06;102314.94;4993819;28;20134;-83
2023/04/08 05:39:56;;;;;;;56.47;36.88;;;11.90;99.90;;;12.07;90.91;102289.16;4994556;28;20141;-83
2023/04/08 05:42:25;;;;;;;53.85;36.50;;;11.90;99.90;;;12.23;90.74;102307.06;4994019;28;20041;-84
2023/04/08 05:44:54;;;;;;;55.25;36.60;;;11.90;99.90;;;12.23;90.46;102320.31;4993690;28;20049;-84
2023/04/08 05:47:22;;;;;;;52.58;36.15;;;11.90;99.90;;;12.11;90.04;102313.09;4994122;28;20050;-84
2023/04/08 05:49:51;;;;;;;55.15;37.70;;;11.90;99.90;;;12.04;90.19;102310.34;4992952;28;20054;-82
2023/04/08 05:52:21;;;;;;;51.10;33.15;;;11.80;99.90;;;12.09;90.14;102319.25;4994806;28;20042;-84
2023/04/08 05:54:50;;;;;;;53.22;35.70;;;11.80;99.90;;;12.14;90.34;102328.13;4993597;28;20129;-85
2023/04/08 05:57:19;;;;;;;51.85;35.50;;;11.80;99.90;;;12.08;90.32;102336.91;4993919;28;20066;-83
2023/04/08 05:59:47;;;;;;;54.53;36.75;;;11.80;99.90;;;12.09;90.18;102328.09;4993544;28;20049;-83
2023/04/08 06:02:16;;;;;;;53.53;35.92;;;11.80;99.90;;;12.07;90.10;102326.28;4993661;28;20047;-82
2023/04/08 06:04:44;;;;;;;53.58;36.08;;;11.80;99.90;;;12.20;89.89;102344.13;4993420;28;20038;-81
2023/04/08 06:07:13;;;;;;;51.38;34.33;;;11.90;99.90;;;12.17;90.09;102339.72;4993618;28;20133;-81
2023/04/08 06:09:41;;;;;;;52.83;36.03;;;11.80;99.90;;;12.19;89.94;102347.69;4993715;28;20117;-82
2023/04/08 06:12:13;;;;;;;56.33;36.45;;;11.80;99.90;;;12.19;90.03;102343.28;4994015;28;20042;-82
2023/04/08 06:14:42;;;;;;;54.83;36.75;;;11.90;99.90;;;12.25;89.98;102345.09;4993688;28;20129;-82
2023/04/08 06:17:10;;;;;;;60.08;39.30;;;11.90;99.90;;;12.33;89.94;102349.63;4993260;28;20492;-83
2023/04/08 06:19:39;;;;;;;56.38;37.72;;;12.00;99.90;;;12.37;89.80;102355.84;4993473;28;20053;-83
2023/04/08 06:22:07;;;;;;;59.00;38.58;;;12.00;99.90;;;12.35;89.94;102358.47;4993481;28;20465;-83
2023/04/08 06:24:35;;;;;;;59.60;38.97;;;12.10;99.90;;;12.41;89.81;102357.66;4992880;28;20055;-82
2023/04/08 06:27:04;;;;;;;55.72;38.35;;;12.10;99.90;;;12.40;89.65;102366.50;4993331;28;20054;-83
2023/04/08 06:29:34;;;;;;;55.05;37.65;;;12.10;99.90;;;12.42;89.52;102370.97;4993508;28;20121;-84
2023/04/08 06:32:02;;;;;;;59.15;37.97;;;12.10;99.90;;;12.29;89.67;102370.81;4993358;28;20046;-84
2023/04/08 06:34:31;;;;;;;57.15;38.53;;;12.10;99.90;;;12.28;89.92;102363.69;4993155;28;20042;-84
2023/04/08 06:36:59;;;;;;;58.22;37.50;;;12.10;99.90;;;12.38;89.54;102381.53;4992043;28;20137;-82
2023/04/08 06:39:27;;;;;;;54.08;36.97;;;12.10;99.90;;;12.38;89.43;102387.72;4993055;28;20049;-84
2023/04/08 06:41:56;;;;;;;59.42;38.20;;;12.10;99.90;;;12.37;89.51;102390.34;4992904;28;20097;-84
2023/04/08 06:44:49;;;;;;;58.95;37.65;;;12.10;99.90;;;12.31;89.62;102396.47;4974036;28;20042;-84
2023/04/08 06:47:17;;;;;;;56.40;37.47;;;12.10;99.90;;;12.34;89.71;102400.94;4993227;28;20093;-84
2023/04/08 06:49:46;;;;;;;58.20;38.45;;;12.10;99.90;;;12.34;89.71;102398.28;4992941;28;20069;-84
2023/04/08 06:52:14;;;;;;;58.15;37.38;;;12.00;99.90;;;12.29;89.79;102392.03;4993191;28;20089;-84
2023/04/08 06:54:43;;;;;;;54.95;37.03;;;12.10;99.90;;;11.18;89.86;102206.66;4993151;28;20054;-84
2023/04/08 06:57:11;;;;;;;53.35;36.72;;;12.00;99.90;;;12.24;89.91;102399.03;4992849;28;20121;-83
2023/04/08 06:59:39;;;;;;;54.08;36.70;;;12.00;99.90;;;12.01;89.83;102369.53;4993107;28;20459;-84
2023/04/08 07:02:09;;;;;;;56.30;37.38;;;12.00;99.90;;;12.16;90.02;102406.88;4993006;28;20046;-83
2023/04/08 07:04:37;;;;;;;56.40;37.80;;;11.90;99.90;;;12.20;90.17;102413.13;4992874;28;20055;-82
2023/04/08 07:07:06;;;;;;;55.22;38.03;;;11.90;99.90;;;12.20;90.21;102413.13;4992340;28;20480;-84
2023/04/08 07:09:35;;;;;;;59.50;37.83;;;11.90;99.90;;;12.20;90.05;102415.75;4993440;28;20042;-88
2023/04/08 07:12:04;;;;;;;54.55;36.55;;;11.90;99.90;;;12.27;90.31;102415.00;4993278;28;20050;-80
2023/04/08 07:14:34;;;;;;;59.92;37.53;;;12.00;99.90;;;12.24;90.30;102405.22;4992751;28;20381;-81
2023/04/08 07:17:03;;;;;;;55.85;37.15;;;12.00;99.90;;;12.32;90.06;102416.84;4991757;28;20053;-80
2023/04/08 07:19:33;;;;;;;56.25;37.25;;;12.00;99.90;;;12.40;90.00;102417.84;4992819;28;20562;-80
2023/04/08 07:22:01;;;;;;;52.87;37.00;;;12.10;99.90;;;12.28;90.11;102422.06;4993138;28;20047;-81
2023/04/08 07:24:30;;;;;;;54.83;36.88;;;12.00;99.90;;;12.38;90.16;102429.28;4992662;28;20432;-80
2023/04/08 07:27:01;;;;;;;51.35;35.35;;;12.10;99.90;;;12.36;90.01;102439.91;4992514;28;20483;-80
2023/04/08 07:29:30;;;;;;;52.13;35.28;;;12.00;99.90;;;12.38;89.74;102431.94;4992974;28;20043;-80
2023/04/08 07:31:59;;;;;;;55.40;36.20;;;12.10;99.90;;;12.19;89.19;102414.00;4992458;28;20065;-76
2023/04/08 07:34:27;;;;;;;52.70;36.25;;;12.10;99.90;;;12.01;89.37;102434.94;4992979;28;20046;-75
2023/04/08 07:36:57;;;;;;;52.35;36.90;;;11.80;99.90;;;11.89;90.45;102434.75;4995098;28;20502;-84
2023/04/08 07:39:25;;;;;;;51.72;36.05;;;11.60;99.90;;;11.87;90.93;102434.75;4996131;28;20411;-83
2023/04/08 07:41:54;;;;;;;51.63;36.80;;;11.60;99.90;;;11.84;91.18;102429.41;4996406;28;20423;-83
2023/04/08 07:44:22;;;;;;;54.42;37.58;;;11.50;99.90;;;12.08;91.11;102442.16;4995994;28;20039;-86
2023/04/08 07:46:50;;;;;;;51.50;36.40;;;11.70;99.90;;;12.13;91.42;102427.19;4995957;28;20038;-83
2023/04/08 07:49:19;;;;;;;51.08;37.53;;;11.80;99.90;;;12.35;91.25;102439.88;4996485;28;20112;-86
2023/04/08 07:51:47;;;;;;;56.10;37.92;;;12.00;99.90;;;12.39;91.42;102444.31;4996285;28;20046;-90
2023/04/08 07:54:17;;;;;;;50.92;36.53;;;12.10;99.90;;;12.58;89.77;102438.41;4995515;28;20541;-90
2023/04/08 07:56:45;;;;;;;55.15;38.38;;;12.40;99.90;;;12.57;90.67;102441.91;4996619;28;20146;-89
2023/04/08 07:59:14;;;;;;;53.33;38.58;;;12.30;99.90;;;12.63;89.94;102448.22;4996162;28;20069;-85
2023/04/08 08:01:42;;;;;;;51.45;37.55;;;12.40;99.90;;;12.81;89.64;102444.91;4996305;28;20042;-83
2023/04/08 08:04:11;;;;;;;49.97;36.50;;;12.60;99.90;;;12.95;89.37;102451.22;4995606;28;20737;-75
2023/04/08 08:06:39;;;;;;;53.35;37.53;;;12.60;99.90;;;13.13;89.51;102450.56;4995981;28;20427;-76
2023/04/08 08:09:08;;;;;;;56.35;40.53;;;12.80;99.90;;;13.23;88.91;102448.03;4994721;28;20046;-74
2023/04/08 08:11:37;;;;;;;55.97;37.83;;;13.00;99.90;;;13.22;87.42;102456.88;4995294;28;20042;-74
2023/04/08 08:14:06;;;;;;;56.70;41.10;;;13.00;99.90;;;13.36;87.20;102457.91;4995681;28;20423;-72
2023/04/08 08:16:35;;;;;;;57.85;39.65;;;13.10;99.90;;;13.37;86.64;102461.47;4995740;28;20050;-71
2023/04/08 08:19:06;;;;;;;57.97;40.72;;;13.20;99.90;;;13.15;86.52;102462.09;4994357;28;20060;-72
2023/04/08 08:21:38;;;;;;;53.25;39.50;;;12.90;99.90;;;13.48;86.55;102458.03;4995653;28;20125;-70
2023/04/08 08:24:06;;;;;;;56.80;39.85;;;13.20;99.90;;;13.55;85.49;102457.19;4994108;28;20104;-73
2023/04/08 08:26:37;;;;;;;52.40;38.05;;;13.30;99.90;;;13.56;85.38;102460.75;4995426;28;20484;-74
2023/04/08 08:29:07;;;;;;;50.53;37.45;;;13.30;99.90;;;13.80;85.63;102452.09;4995475;28;20046;-74
2023/04/08 08:31:36;;;;;;;;;;;13.60;99.90;;;13.89;84.85;102469.03;4995885;28;20038;-77
2023/04/08 08:34:04;;;;;;;57.33;39.35;;;13.70;99.90;;;14.09;84.56;102469.16;4993814;28;19922;-77
2023/04/08 08:36:33;;;;;;;57.42;39.92;;;13.80;99.90;;;14.29;84.16;102476.41;4995060;28;20173;-78
2023/04/08 08:39:02;;;;;;;53.80;39.03;;;14.10;99.90;;;14.45;83.88;102480.06;4995147;28;20036;-79
2023/04/08 08:41:35;;;;;;;54.35;40.22;;;14.20;99.90;;;14.32;81.88;102448.94;4994897;28;20081;-75
2023/04/08 08:44:07;;;;;;;57.25;39.58;;;14.30;99.90;;;14.42;81.49;102478.28;4995103;28;20047;-76
2023/04/08 08:46:35;;;;;;;53.83;40.33;;;14.20;99.90;;;14.64;81.11;102481.94;4994983;28;20046;-77
2023/04/08 08:49:04;;;;;;;53.28;39.45;;;14.40;99.90;;;14.85;81.00;102483.78;4995322;28;20038;-74
2023/04/08 08:51:33;;;;;;;52.90;38.35;;;14.60;99.90;;;15.09;81.26;102478.56;4995280;28;20043;-75
2023/04/08 08:54:03;;;;;;;52.30;39.03;;;14.80;99.90;;;14.79;79.72;102481.13;4994993;28;20049;-75
2023/04/08 08:56:33;;;;;;;54.25;39.22;;;14.70;99.90;;;14.93;78.38;102477.63;4994684;28;20042;-75
2023/04/08 08:59:02;;;;;;;51.22;38.42;;;14.80;99.90;;;15.15;77.91;102481.25;4995230;28;20069;-74
2023/04/08 09:01:34;;;;;;;51.00;37.65;;;14.90;99.90;;;15.44;77.97;102470.66;4994675;28;20064;-75
2023/04/08 09:04:15;;;;;;;49.22;36.15;;;15.20;99.90;;;15.67;76.40;102475.16;4993455;28;20054;-74
2023/04/08 09:06:46;;;;;;;45.95;35.47;;;15.40;99.90;;;15.17;75.96;102365.75;4994550;28;20046;-68
2023/04/08 09:09:15;;;;;;;47.72;37.00;;;15.60;99.90;;;16.29;76.53;102485.78;4994760;28;20069;-66
2023/04/08 09:11:45;;;;;;;43.38;33.90;;;16.00;99.90;;;16.71;75.34;102488.34;4994194;28;20488;-63
2023/04/08 09:14:21;;;;;;;43.78;34.67;;;16.40;99.90;;;16.84;71.08;102487.41;4993755;28;20046;-63
2023/04/08 09:16:51;;;;;;;42.88;33.40;;;16.70;99.90;;;17.21;71.20;102489.91;4994283;28;20073;-63
2023/04/08 09:19:20;;;;;;;40.70;33.65;;;17.00;99.90;;;17.32;68.80;102490.72;4994163;28;20049;-62
2023/04/08 09:22:07;;;;;;;39.95;32.53;;;17.20;99.90;;;17.54;68.88;102484.34;4992784;28;20042;-63
2023/04/08 09:24:36;;;;;;;40.25;32.85;;;17.40;99.90;;;17.07;66.56;102493.53;4992691;28;20087;-64
2023/04/08 09:27:05;;;;;;;40.37;31.40;;;17.10;99.90;;;17.46;68.89;102492.41;4993984;28;20049;-65
2023/04/08 09:29:34;;;;;;;37.22;29.67;;;17.20;99.90;;;16.74;65.30;102429.53;4993707;28;20281;-65
2023/04/08 09:32:07;;;;;;;36.35;30.67;;;17.10;99.90;;;17.55;67.66;102494.19;4993838;28;20073;-64
2023/04/08 09:34:36;;;;;;;37.03;29.63;;;17.30;99.90;;;17.66;66.69;102466.44;4993039;28;20511;-64
2023/04/08 09:37:04;;;;;;;36.47;29.55;;;17.50;99.90;;;17.72;63.90;102493.16;4993730;28;20054;-67
2023/04/08 09:39:33;;;;;;;35.10;29.48;;;17.60;99.90;;;17.52;65.78;102496.84;4994393;28;20046;-66
2023/04/08 09:42:09;;;;;;;37.25;29.58;;;17.30;99.90;;;17.93;66.44;102492.06;4993930;28;20450;-65
2023/04/08 09:44:38;;;;;;;31.88;27.38;;;17.60;99.90;;;18.16;65.19;102490.06;4994112;28;20044;-66
2023/04/08 09:47:15;;;;;;;33.58;28.77;;;17.90;99.90;;;18.50;65.21;102504.97;4993530;28;20049;-65
2023/04/08 09:49:50;;;;;;;30.15;26.63;;;18.20;99.90;;;18.70;63.95;102508.28;4993511;28;20047;-68
2023/04/08 09:52:25;;;;;;;29.20;26.08;;;18.50;99.90;;;18.36;61.57;102504.19;4993620;28;20042;-68
2023/04/08 09:55:00;;;;;;;27.70;24.67;;;18.30;99.90;;;18.65;60.93;102502.09;4994082;28;20056;-68
2023/04/08 09:57:40;;;;;;;26.65;23.63;;;18.50;99.90;;;18.82;61.73;102481.34;4993788;28;20046;-68
2023/04/08 10:00:13;;;;;;;29.33;26.20;;;18.70;99.90;;;19.01;59.70;102492.69;4993416;28;20488;-70
2023/04/08 10:02:55;;;;;;;27.67;24.73;;;18.90;99.90;;;19.19;59.38;102503.19;4994160;28;20579;-69
2023/04/08 10:05:25;;;;;;;31.73;27.50;;;19.10;99.90;;;18.87;58.77;102484.81;4993592;28;20125;-67
2023/04/08 10:07:55;;;;;;;30.08;25.02;;;18.90;99.90;;;19.29;59.98;102499.47;4993396;28;20125;-68
2023/04/08 10:10:25;;;;;;;27.23;24.42;;;19.10;99.90;;;19.24;57.75;102495.94;4994091;28;20071;-74